sensor_id;sensor_type;location;lat;lon;timestamp;temperature;humidity
25108;DHT22;13090;53.422;7.670;2022-11-20T00:02:27;5.70;87.20
25108;DHT22;13090;53.422;7.670;2022-11-20T00:07:30;5.80;87.40
25108;DHT22;13090;53.422;7.670;2022-11-20T00:12:33;5.70;87.30
25108;DHT22;13090;53.422;7.670;2022-11-20T00:17:37;5.80;87.40
25108;DHT22;13090;53.422;7.670;2022-11-20T00:22:41;5.80;87.60
25108;DHT22;13090;53.422;7.670;2022-11-20T00:27:44;5.80;87.60
25108;DHT22;13090;53.422;7.670;2022-11-20T00:32:51;5.80;87.60
25108;DHT22;13090;53.422;7.670;2022-11-20T00:37:56;5.80;87.60
25108;DHT22;13090;53.422;7.670;2022-11-20T00:42:58;5.80;87.60
25108;DHT22;13090;53.422;7.670;2022-11-20T00:48:04;5.80;87.60
25108;DHT22;13090;53.422;7.670;2022-11-20T00:53:07;5.80;87.60
25108;DHT22;13090;53.422;7.670;2022-11-20T00:58:10;5.90;87.80
25108;DHT22;13090;53.422;7.670;2022-11-20T01:03:18;5.80;87.70
25108;DHT22;13090;53.422;7.670;2022-11-20T01:08:30;5.80;87.60
25108;DHT22;13090;53.422;7.670;2022-11-20T01:13:32;5.80;87.70
25108;DHT22;13090;53.422;7.670;2022-11-20T01:18:39;5.70;87.80
25108;DHT22;13090;53.422;7.670;2022-11-20T01:23:43;5.70;87.90
25108;DHT22;13090;53.422;7.670;2022-11-20T01:28:46;5.70;88.00
25108;DHT22;13090;53.422;7.670;2022-11-20T01:33:52;5.70;88.10
25108;DHT22;13090;53.422;7.670;2022-11-20T01:38:57;5.70;88.20
25108;DHT22;13090;53.422;7.670;2022-11-20T01:44:00;5.70;88.30
25108;DHT22;13090;53.422;7.670;2022-11-20T01:49:10;5.70;88.40
25108;DHT22;13090;53.422;7.670;2022-11-20T01:54:16;5.70;88.40
25108;DHT22;13090;53.422;7.670;2022-11-20T01:59:22;5.70;88.40
25108;DHT22;13090;53.422;7.670;2022-11-20T02:04:26;5.80;88.40
25108;DHT22;13090;53.422;7.670;2022-11-20T02:09:29;5.80;88.40
25108;DHT22;13090;53.422;7.670;2022-11-20T02:14:31;5.80;88.40
25108;DHT22;13090;53.422;7.670;2022-11-20T02:19:35;5.80;88.30
25108;DHT22;13090;53.422;7.670;2022-11-20T02:24:39;5.80;88.40
25108;DHT22;13090;53.422;7.670;2022-11-20T02:29:46;5.80;88.40
25108;DHT22;13090;53.422;7.670;2022-11-20T02:34:52;5.80;88.40
25108;DHT22;13090;53.422;7.670;2022-11-20T02:39:57;5.80;88.40
25108;DHT22;13090;53.422;7.670;2022-11-20T02:45:00;5.70;88.30
25108;DHT22;13090;53.422;7.670;2022-11-20T02:50:04;5.80;88.40
25108;DHT22;13090;53.422;7.670;2022-11-20T02:55:08;5.70;88.30
25108;DHT22;13090;53.422;7.670;2022-11-20T03:00:12;5.70;88.20
25108;DHT22;13090;53.422;7.670;2022-11-20T03:05:15;5.60;88.20
25108;DHT22;13090;53.422;7.670;2022-11-20T03:10:19;5.60;88.20
25108;DHT22;13090;53.422;7.670;2022-11-20T03:15:22;5.60;88.20
25108;DHT22;13090;53.422;7.670;2022-11-20T03:20:24;5.60;88.20
25108;DHT22;13090;53.422;7.670;2022-11-20T03:25:28;5.60;89.10
25108;DHT22;13090;53.422;7.670;2022-11-20T03:30:31;5.60;88.30
25108;DHT22;13090;53.422;7.670;2022-11-20T03:35:33;5.60;88.20
25108;DHT22;13090;53.422;7.670;2022-11-20T03:40:40;5.60;88.20
25108;DHT22;13090;53.422;7.670;2022-11-20T03:45:43;5.60;88.20
25108;DHT22;13090;53.422;7.670;2022-11-20T03:50:45;5.60;88.20
25108;DHT22;13090;53.422;7.670;2022-11-20T03:55:52;5.60;88.20
25108;DHT22;13090;53.422;7.670;2022-11-20T04:00:54;5.60;88.00
25108;DHT22;13090;53.422;7.670;2022-11-20T04:06:02;5.60;87.40
25108;DHT22;13090;53.422;7.670;2022-11-20T04:11:11;5.60;88.10
25108;DHT22;13090;53.422;7.670;2022-11-20T04:16:14;5.50;88.00
25108;DHT22;13090;53.422;7.670;2022-11-20T04:21:17;5.50;88.00
25108;DHT22;13090;53.422;7.670;2022-11-20T04:26:23;5.40;88.00
25108;DHT22;13090;53.422;7.670;2022-11-20T04:31:29;5.40;88.00
25108;DHT22;13090;53.422;7.670;2022-11-20T04:36:32;5.40;88.10
25108;DHT22;13090;53.422;7.670;2022-11-20T04:41:36;5.40;88.20
25108;DHT22;13090;53.422;7.670;2022-11-20T04:46:40;5.30;88.20
25108;DHT22;13090;53.422;7.670;2022-11-20T04:51:43;5.30;88.30
25108;DHT22;13090;53.422;7.670;2022-11-20T04:56:47;5.30;88.30
25108;DHT22;13090;53.422;7.670;2022-11-20T05:01:50;5.30;88.40
25108;DHT22;13090;53.422;7.670;2022-11-20T05:06:53;5.30;88.50
25108;DHT22;13090;53.422;7.670;2022-11-20T05:11:57;5.30;88.60
25108;DHT22;13090;53.422;7.670;2022-11-20T05:17:00;5.30;88.60
25108;DHT22;13090;53.422;7.670;2022-11-20T05:22:02;5.40;88.60
25108;DHT22;13090;53.422;7.670;2022-11-20T05:27:07;5.40;88.70
25108;DHT22;13090;53.422;7.670;2022-11-20T05:32:10;5.30;88.60
25108;DHT22;13090;53.422;7.670;2022-11-20T05:37:12;5.30;88.60
25108;DHT22;13090;53.422;7.670;2022-11-20T05:42:16;5.30;88.70
25108;DHT22;13090;53.422;7.670;2022-11-20T05:47:18;5.30;88.90
25108;DHT22;13090;53.422;7.670;2022-11-20T05:52:21;5.20;88.90
25108;DHT22;13090;53.422;7.670;2022-11-20T05:57:25;5.30;89.00
25108;DHT22;13090;53.422;7.670;2022-11-20T06:02:27;5.20;89.00
25108;DHT22;13090;53.422;7.670;2022-11-20T06:07:30;5.30;89.20
25108;DHT22;13090;53.422;7.670;2022-11-20T06:12:34;5.30;89.20
25108;DHT22;13090;53.422;7.670;2022-11-20T06:17:38;5.30;89.20
25108;DHT22;13090;53.422;7.670;2022-11-20T06:22:41;5.30;89.20
25108;DHT22;13090;53.422;7.670;2022-11-20T06:27:44;5.30;89.10
25108;DHT22;13090;53.422;7.670;2022-11-20T06:32:47;5.40;89.20
25108;DHT22;13090;53.422;7.670;2022-11-20T06:37:49;5.40;89.10
25108;DHT22;13090;53.422;7.670;2022-11-20T06:42:55;5.30;89.00
25108;DHT22;13090;53.422;7.670;2022-11-20T06:47:58;5.30;89.00
25108;DHT22;13090;53.422;7.670;2022-11-20T06:53:03;5.30;89.10
25108;DHT22;13090;53.422;7.670;2022-11-20T06:58:07;5.30;89.20
25108;DHT22;13090;53.422;7.670;2022-11-20T07:03:11;5.30;89.20
25108;DHT22;13090;53.422;7.670;2022-11-20T07:08:13;5.40;89.40
25108;DHT22;13090;53.422;7.670;2022-11-20T07:13:17;5.40;89.40
25108;DHT22;13090;53.422;7.670;2022-11-20T07:18:22;5.40;89.30
25108;DHT22;13090;53.422;7.670;2022-11-20T07:23:25;5.40;89.40
25108;DHT22;13090;53.422;7.670;2022-11-20T07:28:29;5.40;89.40
25108;DHT22;13090;53.422;7.670;2022-11-20T07:33:32;5.30;89.40
25108;DHT22;13090;53.422;7.670;2022-11-20T07:38:34;5.40;89.60
25108;DHT22;13090;53.422;7.670;2022-11-20T07:43:39;5.40;89.70
25108;DHT22;13090;53.422;7.670;2022-11-20T07:48:42;5.40;89.70
25108;DHT22;13090;53.422;7.670;2022-11-20T07:53:45;5.50;89.80
25108;DHT22;13090;53.422;7.670;2022-11-20T07:58:49;5.50;89.70
25108;DHT22;13090;53.422;7.670;2022-11-20T08:03:51;5.50;89.60
25108;DHT22;13090;53.422;7.670;2022-11-20T08:08:57;5.50;89.60
25108;DHT22;13090;53.422;7.670;2022-11-20T08:14:01;5.50;89.80
25108;DHT22;13090;53.422;7.670;2022-11-20T08:19:07;5.50;89.60
25108;DHT22;13090;53.422;7.670;2022-11-20T08:24:10;5.50;89.60
25108;DHT22;13090;53.422;7.670;2022-11-20T08:29:14;5.40;89.70
25108;DHT22;13090;53.422;7.670;2022-11-20T08:34:16;5.50;89.80
25108;DHT22;13090;53.422;7.670;2022-11-20T08:39:21;5.50;89.80
25108;DHT22;13090;53.422;7.670;2022-11-20T08:44:26;5.50;89.80
25108;DHT22;13090;53.422;7.670;2022-11-20T08:49:32;5.60;89.90
25108;DHT22;13090;53.422;7.670;2022-11-20T08:54:34;5.60;89.90
25108;DHT22;13090;53.422;7.670;2022-11-20T08:59:38;5.60;89.90
25108;DHT22;13090;53.422;7.670;2022-11-20T09:05:00;5.70;89.80
25108;DHT22;13090;53.422;7.670;2022-11-20T09:10:03;5.70;89.80
25108;DHT22;13090;53.422;7.670;2022-11-20T09:15:26;5.80;89.60
25108;DHT22;13090;53.422;7.670;2022-11-20T09:20:29;5.90;89.50
25108;DHT22;13090;53.422;7.670;2022-11-20T09:25:32;5.90;89.40
25108;DHT22;13090;53.422;7.670;2022-11-20T09:30:36;5.90;89.40
25108;DHT22;13090;53.422;7.670;2022-11-20T09:35:38;5.90;89.30
25108;DHT22;13090;53.422;7.670;2022-11-20T09:40:47;6.00;89.40
25108;DHT22;13090;53.422;7.670;2022-11-20T09:46:02;6.00;89.30
25108;DHT22;13090;53.422;7.670;2022-11-20T09:51:15;6.10;89.40
25108;DHT22;13090;53.422;7.670;2022-11-20T09:56:20;6.20;89.30
25108;DHT22;13090;53.422;7.670;2022-11-20T10:01:29;6.30;89.30
25108;DHT22;13090;53.422;7.670;2022-11-20T10:06:37;6.30;89.00
25108;DHT22;13090;53.422;7.670;2022-11-20T10:11:48;6.40;88.80
25108;DHT22;13090;53.422;7.670;2022-11-20T10:17:02;6.40;88.50
25108;DHT22;13090;53.422;7.670;2022-11-20T10:22:15;6.40;88.30
25108;DHT22;13090;53.422;7.670;2022-11-20T10:27:41;6.40;88.40
25108;DHT22;13090;53.422;7.670;2022-11-20T10:32:51;6.60;89.80
25108;DHT22;13090;53.422;7.670;2022-11-20T10:37:58;7.00;90.40
25108;DHT22;13090;53.422;7.670;2022-11-20T10:43:04;7.50;90.50
25108;DHT22;13090;53.422;7.670;2022-11-20T10:48:16;8.10;90.80
25108;DHT22;13090;53.422;7.670;2022-11-20T10:53:37;8.80;90.20
25108;DHT22;13090;53.422;7.670;2022-11-20T10:58:48;9.10;88.50
25108;DHT22;13090;53.422;7.670;2022-11-20T11:03:55;9.30;87.90
25108;DHT22;13090;53.422;7.670;2022-11-20T11:09:02;9.30;87.20
25108;DHT22;13090;53.422;7.670;2022-11-20T11:14:07;9.30;86.80
25108;DHT22;13090;53.422;7.670;2022-11-20T11:19:13;9.30;87.10
25108;DHT22;13090;53.422;7.670;2022-11-20T11:24:21;9.20;86.60
25108;DHT22;13090;53.422;7.670;2022-11-20T11:29:44;9.10;86.10
25108;DHT22;13090;53.422;7.670;2022-11-20T11:35:00;8.90;85.80
25108;DHT22;13090;53.422;7.670;2022-11-20T11:40:05;8.70;84.90
25108;DHT22;13090;53.422;7.670;2022-11-20T11:45:26;8.40;85.70
25108;DHT22;13090;53.422;7.670;2022-11-20T11:50:30;8.20;86.20
25108;DHT22;13090;53.422;7.670;2022-11-20T11:55:36;8.10;86.60
25108;DHT22;13090;53.422;7.670;2022-11-20T12:00:45;8.00;86.70
25108;DHT22;13090;53.422;7.670;2022-11-20T12:05:55;8.00;87.20
25108;DHT22;13090;53.422;7.670;2022-11-20T12:11:04;8.10;87.10
25108;DHT22;13090;53.422;7.670;2022-11-20T12:16:12;8.10;86.90
25108;DHT22;13090;53.422;7.670;2022-11-20T12:21:27;8.10;86.80
25108;DHT22;13090;53.422;7.670;2022-11-20T12:26:39;8.20;86.60
25108;DHT22;13090;53.422;7.670;2022-11-20T12:32:06;8.30;86.90
25108;DHT22;13090;53.422;7.670;2022-11-20T12:37:34;8.40;87.00
25108;DHT22;13090;53.422;7.670;2022-11-20T12:42:49;8.50;86.20
25108;DHT22;13090;53.422;7.670;2022-11-20T12:53:36;8.40;85.50
25108;DHT22;13090;53.422;7.670;2022-11-20T12:58:46;8.40;85.70
25108;DHT22;13090;53.422;7.670;2022-11-20T13:03:53;8.30;85.60
25108;DHT22;13090;53.422;7.670;2022-11-20T13:09:01;8.20;85.70
25108;DHT22;13090;53.422;7.670;2022-11-20T13:14:18;8.10;85.80
25108;DHT22;13090;53.422;7.670;2022-11-20T13:19:29;8.10;85.60
25108;DHT22;13090;53.422;7.670;2022-11-20T13:24:33;8.10;87.10
25108;DHT22;13090;53.422;7.670;2022-11-20T13:29:37;8.10;86.00
25108;DHT22;13090;53.422;7.670;2022-11-20T13:34:51;8.10;85.90
25108;DHT22;13090;53.422;7.670;2022-11-20T13:40:05;8.10;85.30
25108;DHT22;13090;53.422;7.670;2022-11-20T13:45:28;8.10;85.30
25108;DHT22;13090;53.422;7.670;2022-11-20T13:50:48;8.00;84.80
25108;DHT22;13090;53.422;7.670;2022-11-20T13:56:00;8.00;84.60
25108;DHT22;13090;53.422;7.670;2022-11-20T14:01:09;7.90;85.00
25108;DHT22;13090;53.422;7.670;2022-11-20T14:06:19;7.80;85.00
25108;DHT22;13090;53.422;7.670;2022-11-20T14:11:27;7.80;85.10
25108;DHT22;13090;53.422;7.670;2022-11-20T14:16:32;7.70;85.10
25108;DHT22;13090;53.422;7.670;2022-11-20T14:21:35;7.60;85.10
25108;DHT22;13090;53.422;7.670;2022-11-20T14:26:41;7.50;85.10
25108;DHT22;13090;53.422;7.670;2022-11-20T14:31:45;7.40;84.90
25108;DHT22;13090;53.422;7.670;2022-11-20T14:36:57;7.30;85.00
25108;DHT22;13090;53.422;7.670;2022-11-20T14:42:03;7.10;85.00
25108;DHT22;13090;53.422;7.670;2022-11-20T14:47:15;7.00;85.40
25108;DHT22;13090;53.422;7.670;2022-11-20T14:52:21;6.90;85.80
25108;DHT22;13090;53.422;7.670;2022-11-20T14:57:27;6.80;85.60
25108;DHT22;13090;53.422;7.670;2022-11-20T15:02:30;6.70;85.30
25108;DHT22;13090;53.422;7.670;2022-11-20T15:07:34;6.60;85.40
25108;DHT22;13090;53.422;7.670;2022-11-20T15:12:46;6.50;85.10
25108;DHT22;13090;53.422;7.670;2022-11-20T15:17:49;6.30;85.40
25108;DHT22;13090;53.422;7.670;2022-11-20T15:22:51;6.20;85.70
25108;DHT22;13090;53.422;7.670;2022-11-20T15:27:56;6.10;85.80
25108;DHT22;13090;53.422;7.670;2022-11-20T15:32:59;6.00;85.80
25108;DHT22;13090;53.422;7.670;2022-11-20T15:38:01;5.90;86.10
25108;DHT22;13090;53.422;7.670;2022-11-20T15:43:05;5.80;86.10
25108;DHT22;13090;53.422;7.670;2022-11-20T15:48:17;5.70;86.10
25108;DHT22;13090;53.422;7.670;2022-11-20T15:53:20;5.70;86.10
25108;DHT22;13090;53.422;7.670;2022-11-20T15:58:23;5.60;86.50
25108;DHT22;13090;53.422;7.670;2022-11-20T16:03:26;5.50;86.40
25108;DHT22;13090;53.422;7.670;2022-11-20T16:08:28;5.40;86.40
25108;DHT22;13090;53.422;7.670;2022-11-20T16:13:32;5.30;86.30
25108;DHT22;13090;53.422;7.670;2022-11-20T16:18:34;5.30;87.20
25108;DHT22;13090;53.422;7.670;2022-11-20T16:23:37;5.30;87.20
25108;DHT22;13090;53.422;7.670;2022-11-20T16:28:40;5.30;86.80
25108;DHT22;13090;53.422;7.670;2022-11-20T16:33:48;5.30;87.20
25108;DHT22;13090;53.422;7.670;2022-11-20T16:38:52;5.30;87.30
25108;DHT22;13090;53.422;7.670;2022-11-20T16:43:58;5.30;86.90
25108;DHT22;13090;53.422;7.670;2022-11-20T16:49:02;5.20;86.40
25108;DHT22;13090;53.422;7.670;2022-11-20T16:54:06;5.10;86.80
25108;DHT22;13090;53.422;7.670;2022-11-20T16:59:12;5.00;85.90
25108;DHT22;13090;53.422;7.670;2022-11-20T17:04:16;4.90;86.30
25108;DHT22;13090;53.422;7.670;2022-11-20T17:09:19;4.70;86.80
25108;DHT22;13090;53.422;7.670;2022-11-20T17:14:23;4.70;87.80
25108;DHT22;13090;53.422;7.670;2022-11-20T17:19:25;4.80;86.10
25108;DHT22;13090;53.422;7.670;2022-11-20T17:24:28;4.70;86.00
25108;DHT22;13090;53.422;7.670;2022-11-20T17:29:34;4.60;86.50
25108;DHT22;13090;53.422;7.670;2022-11-20T17:34:43;4.60;86.50
25108;DHT22;13090;53.422;7.670;2022-11-20T17:39:45;4.50;86.20
25108;DHT22;13090;53.422;7.670;2022-11-20T17:44:51;4.40;86.50
25108;DHT22;13090;53.422;7.670;2022-11-20T17:49:55;4.30;86.80
25108;DHT22;13090;53.422;7.670;2022-11-20T17:54:58;4.30;86.90
25108;DHT22;13090;53.422;7.670;2022-11-20T18:00:02;4.20;86.70
25108;DHT22;13090;53.422;7.670;2022-11-20T18:05:05;4.10;86.60
25108;DHT22;13090;53.422;7.670;2022-11-20T18:10:08;4.10;86.70
25108;DHT22;13090;53.422;7.670;2022-11-20T18:15:12;4.00;86.50
25108;DHT22;13090;53.422;7.670;2022-11-20T18:20:15;3.90;86.70
25108;DHT22;13090;53.422;7.670;2022-11-20T18:25:37;3.90;86.80
25108;DHT22;13090;53.422;7.670;2022-11-20T18:30:41;3.80;86.90
25108;DHT22;13090;53.422;7.670;2022-11-20T18:35:43;3.80;86.70
25108;DHT22;13090;53.422;7.670;2022-11-20T18:40:46;3.70;85.30
25108;DHT22;13090;53.422;7.670;2022-11-20T18:45:50;3.60;83.10
25108;DHT22;13090;53.422;7.670;2022-11-20T18:51:06;3.60;84.60
25108;DHT22;13090;53.422;7.670;2022-11-20T18:56:10;3.50;85.50
25108;DHT22;13090;53.422;7.670;2022-11-20T19:01:14;3.50;85.80
25108;DHT22;13090;53.422;7.670;2022-11-20T19:06:18;3.50;86.00
25108;DHT22;13090;53.422;7.670;2022-11-20T19:11:20;3.50;86.30
25108;DHT22;13090;53.422;7.670;2022-11-20T19:16:24;3.40;86.30
25108;DHT22;13090;53.422;7.670;2022-11-20T19:21:27;3.50;86.10
25108;DHT22;13090;53.422;7.670;2022-11-20T19:26:30;3.50;85.90
25108;DHT22;13090;53.422;7.670;2022-11-20T19:31:35;3.40;85.00
25108;DHT22;13090;53.422;7.670;2022-11-20T19:36:38;3.40;85.20
25108;DHT22;13090;53.422;7.670;2022-11-20T19:41:48;3.40;84.80
25108;DHT22;13090;53.422;7.670;2022-11-20T19:46:53;3.30;85.30
25108;DHT22;13090;53.422;7.670;2022-11-20T19:51:56;3.30;85.60
25108;DHT22;13090;53.422;7.670;2022-11-20T19:56:59;3.30;86.20
25108;DHT22;13090;53.422;7.670;2022-11-20T20:02:09;3.30;85.60
25108;DHT22;13090;53.422;7.670;2022-11-20T20:07:12;3.30;86.30
25108;DHT22;13090;53.422;7.670;2022-11-20T20:12:15;3.40;87.10
25108;DHT22;13090;53.422;7.670;2022-11-20T20:17:19;3.50;86.50
25108;DHT22;13090;53.422;7.670;2022-11-20T20:22:24;3.50;86.60
25108;DHT22;13090;53.422;7.670;2022-11-20T20:27:30;3.50;86.80
25108;DHT22;13090;53.422;7.670;2022-11-20T20:32:34;3.50;86.10
25108;DHT22;13090;53.422;7.670;2022-11-20T20:37:36;3.50;86.00
25108;DHT22;13090;53.422;7.670;2022-11-20T20:42:39;3.40;85.90
25108;DHT22;13090;53.422;7.670;2022-11-20T20:47:44;3.40;86.20
25108;DHT22;13090;53.422;7.670;2022-11-20T20:52:47;3.30;86.40
25108;DHT22;13090;53.422;7.670;2022-11-20T20:57:56;3.30;86.60
25108;DHT22;13090;53.422;7.670;2022-11-20T21:03:01;3.30;86.40
25108;DHT22;13090;53.422;7.670;2022-11-20T21:08:04;3.30;86.70
25108;DHT22;13090;53.422;7.670;2022-11-20T21:13:06;3.30;87.10
25108;DHT22;13090;53.422;7.670;2022-11-20T21:18:10;3.40;87.20
25108;DHT22;13090;53.422;7.670;2022-11-20T21:23:15;3.40;87.20
25108;DHT22;13090;53.422;7.670;2022-11-20T21:28:18;3.50;87.20
25108;DHT22;13090;53.422;7.670;2022-11-20T21:33:23;3.60;87.30
25108;DHT22;13090;53.422;7.670;2022-11-20T21:38:27;3.70;87.50
25108;DHT22;13090;53.422;7.670;2022-11-20T21:43:32;3.70;87.40
25108;DHT22;13090;53.422;7.670;2022-11-20T21:48:40;3.70;86.60
25108;DHT22;13090;53.422;7.670;2022-11-20T21:53:43;3.60;84.90
25108;DHT22;13090;53.422;7.670;2022-11-20T21:58:45;3.50;85.80
25108;DHT22;13090;53.422;7.670;2022-11-20T22:03:51;3.40;86.20
25108;DHT22;13090;53.422;7.670;2022-11-20T22:08:54;3.30;86.60
25108;DHT22;13090;53.422;7.670;2022-11-20T22:13:57;3.20;86.80
25108;DHT22;13090;53.422;7.670;2022-11-20T22:19:01;3.20;87.20
25108;DHT22;13090;53.422;7.670;2022-11-20T22:24:05;3.30;87.90
25108;DHT22;13090;53.422;7.670;2022-11-20T22:29:12;3.40;87.90
25108;DHT22;13090;53.422;7.670;2022-11-20T22:34:17;3.50;87.70
25108;DHT22;13090;53.422;7.670;2022-11-20T22:39:19;3.60;87.70
25108;DHT22;13090;53.422;7.670;2022-11-20T22:44:22;3.60;87.60
25108;DHT22;13090;53.422;7.670;2022-11-20T22:49:26;3.60;87.50
25108;DHT22;13090;53.422;7.670;2022-11-20T22:54:28;3.70;87.50
25108;DHT22;13090;53.422;7.670;2022-11-20T22:59:31;3.70;87.60
25108;DHT22;13090;53.422;7.670;2022-11-20T23:04:35;3.80;87.60
25108;DHT22;13090;53.422;7.670;2022-11-20T23:09:37;3.80;87.40
25108;DHT22;13090;53.422;7.670;2022-11-20T23:14:39;3.80;87.40
25108;DHT22;13090;53.422;7.670;2022-11-20T23:19:43;3.80;87.40
25108;DHT22;13090;53.422;7.670;2022-11-20T23:24:46;3.80;87.20
25108;DHT22;13090;53.422;7.670;2022-11-20T23:29:48;3.70;87.80
25108;DHT22;13090;53.422;7.670;2022-11-20T23:34:52;3.70;87.60
25108;DHT22;13090;53.422;7.670;2022-11-20T23:39:54;3.70;87.80
25108;DHT22;13090;53.422;7.670;2022-11-20T23:44:57;3.70;87.90
25108;DHT22;13090;53.422;7.670;2022-11-20T23:50:01;3.70;88.10
25108;DHT22;13090;53.422;7.670;2022-11-20T23:55:04;3.80;88.10
